Terminal Aerodrome Forecast
Issued by NWS Pueblo, CO

Home | Current Version | Previous Version | Text Only | Print | Product List | Glossary On
Versions: 1 2 3 4 5 6 7 8 9 10 11 12 13 14 15 16 17 18 19 20 21 22 23 24 25
000
FTUS45 KPUB 152355 CCA
TAFALS
TAF COR
KALS 152355Z 1600/1624 26014KT P6SM SCT110 BKN200
      TEMPO 1600/1602 26014G24KT
     FM160200 24011KT P6SM SCT110 BKN200
     FM160600 VRB06KT P6SM SCT100 BKN200
     FM161900 23013KT P6SM BKN100=

USA.gov is the U.S. government's official web portal to all federal, state and local government web resources and services.